sensor_id;sensor_type;location;lat;lon;timestamp;temperature;humidity
4429;DHT22;2227;47.810;8.810;2022-11-20T00:01:18;3.80;99.90
4429;DHT22;2227;47.810;8.810;2022-11-20T00:03:45;3.80;99.90
4429;DHT22;2227;47.810;8.810;2022-11-20T00:06:17;3.80;99.90
4429;DHT22;2227;47.810;8.810;2022-11-20T00:08:44;3.80;99.90
4429;DHT22;2227;47.810;8.810;2022-11-20T00:11:15;3.80;99.90
4429;DHT22;2227;47.810;8.810;2022-11-20T00:13:46;3.70;99.90
4429;DHT22;2227;47.810;8.810;2022-11-20T00:16:15;3.60;99.90
4429;DHT22;2227;47.810;8.810;2022-11-20T00:18:42;3.50;99.90
4429;DHT22;2227;47.810;8.810;2022-11-20T00:21:14;3.50;99.90
4429;DHT22;2227;47.810;8.810;2022-11-20T00:23:41;3.50;99.90
4429;DHT22;2227;47.810;8.810;2022-11-20T00:26:12;3.40;99.90
4429;DHT22;2227;47.810;8.810;2022-11-20T00:28:40;3.40;99.90
4429;DHT22;2227;47.810;8.810;2022-11-20T05:33:17;4.40;99.90
4429;DHT22;2227;47.810;8.810;2022-11-20T05:35:44;4.20;99.90
4429;DHT22;2227;47.810;8.810;2022-11-20T05:38:11;4.20;99.90
4429;DHT22;2227;47.810;8.810;2022-11-20T05:40:38;4.10;99.90
4429;DHT22;2227;47.810;8.810;2022-11-20T05:43:04;3.90;99.90
4429;DHT22;2227;47.810;8.810;2022-11-20T05:45:31;3.70;99.90
4429;DHT22;2227;47.810;8.810;2022-11-20T05:47:59;3.60;99.90
4429;DHT22;2227;47.810;8.810;2022-11-20T05:50:29;3.60;99.90
4429;DHT22;2227;47.810;8.810;2022-11-20T05:52:58;3.70;99.90
4429;DHT22;2227;47.810;8.810;2022-11-20T05:55:26;3.70;99.90
4429;DHT22;2227;47.810;8.810;2022-11-20T05:57:53;3.70;99.90
4429;DHT22;2227;47.810;8.810;2022-11-20T06:00:21;3.70;99.90
4429;DHT22;2227;47.810;8.810;2022-11-20T06:02:48;3.70;99.90
4429;DHT22;2227;47.810;8.810;2022-11-20T06:05:14;3.60;99.90
4429;DHT22;2227;47.810;8.810;2022-11-20T06:07:41;3.40;99.90
4429;DHT22;2227;47.810;8.810;2022-11-20T06:10:08;3.40;99.90
4429;DHT22;2227;47.810;8.810;2022-11-20T06:12:35;3.20;99.90
4429;DHT22;2227;47.810;8.810;2022-11-20T06:15:03;3.20;99.90
4429;DHT22;2227;47.810;8.810;2022-11-20T06:17:30;3.10;99.90
4429;DHT22;2227;47.810;8.810;2022-11-20T06:19:57;3.20;99.90
4429;DHT22;2227;47.810;8.810;2022-11-20T06:22:23;3.30;99.90
4429;DHT22;2227;47.810;8.810;2022-11-20T06:24:50;3.60;99.90
4429;DHT22;2227;47.810;8.810;2022-11-20T06:27:17;3.80;99.90
4429;DHT22;2227;47.810;8.810;2022-11-20T06:29:43;4.00;99.90
4429;DHT22;2227;47.810;8.810;2022-11-20T06:32:10;4.20;99.90
4429;DHT22;2227;47.810;8.810;2022-11-20T06:34:37;4.30;99.90
4429;DHT22;2227;47.810;8.810;2022-11-20T06:37:03;4.40;99.90
4429;DHT22;2227;47.810;8.810;2022-11-20T06:39:30;4.50;99.90
4429;DHT22;2227;47.810;8.810;2022-11-20T06:41:57;4.50;99.90
4429;DHT22;2227;47.810;8.810;2022-11-20T06:44:25;4.60;99.90
4429;DHT22;2227;47.810;8.810;2022-11-20T06:46:52;4.70;99.90
4429;DHT22;2227;47.810;8.810;2022-11-20T06:49:19;4.70;99.90
4429;DHT22;2227;47.810;8.810;2022-11-20T06:51:46;4.70;99.90
4429;DHT22;2227;47.810;8.810;2022-11-20T06:54:13;4.70;99.90
4429;DHT22;2227;47.810;8.810;2022-11-20T06:56:40;4.70;99.90
4429;DHT22;2227;47.810;8.810;2022-11-20T06:59:07;4.70;99.90
4429;DHT22;2227;47.810;8.810;2022-11-20T07:01:34;4.70;99.90
4429;DHT22;2227;47.810;8.810;2022-11-20T07:04:01;4.70;99.90
4429;DHT22;2227;47.810;8.810;2022-11-20T07:06:29;4.70;99.90
4429;DHT22;2227;47.810;8.810;2022-11-20T07:08:56;4.80;99.90
4429;DHT22;2227;47.810;8.810;2022-11-20T07:11:23;4.90;99.90
4429;DHT22;2227;47.810;8.810;2022-11-20T07:13:50;5.00;99.90
4429;DHT22;2227;47.810;8.810;2022-11-20T07:16:16;5.00;99.90
4429;DHT22;2227;47.810;8.810;2022-11-20T07:18:43;5.10;99.90
4429;DHT22;2227;47.810;8.810;2022-11-20T07:21:16;5.20;99.90
4429;DHT22;2227;47.810;8.810;2022-11-20T07:23:42;5.30;99.90
4429;DHT22;2227;47.810;8.810;2022-11-20T07:26:10;5.40;99.90
4429;DHT22;2227;47.810;8.810;2022-11-20T07:28:37;5.60;99.90
4429;DHT22;2227;47.810;8.810;2022-11-20T07:31:04;5.60;99.90
4429;DHT22;2227;47.810;8.810;2022-11-20T07:33:33;5.60;99.90
4429;DHT22;2227;47.810;8.810;2022-11-20T07:36:01;5.60;99.90
4429;DHT22;2227;47.810;8.810;2022-11-20T07:38:28;5.50;99.90
4429;DHT22;2227;47.810;8.810;2022-11-20T07:40:55;5.60;99.90
4429;DHT22;2227;47.810;8.810;2022-11-20T07:43:23;5.60;99.90
4429;DHT22;2227;47.810;8.810;2022-11-20T07:45:50;5.60;99.90
4429;DHT22;2227;47.810;8.810;2022-11-20T07:48:17;5.60;99.90
4429;DHT22;2227;47.810;8.810;2022-11-20T07:50:44;5.70;99.90
4429;DHT22;2227;47.810;8.810;2022-11-20T07:53:10;5.70;99.90
4429;DHT22;2227;47.810;8.810;2022-11-20T07:55:39;5.70;99.90
4429;DHT22;2227;47.810;8.810;2022-11-20T07:58:06;5.70;99.90
4429;DHT22;2227;47.810;8.810;2022-11-20T08:00:32;5.60;99.90
4429;DHT22;2227;47.810;8.810;2022-11-20T08:03:02;5.70;99.90
4429;DHT22;2227;47.810;8.810;2022-11-20T08:05:28;5.70;99.90
4429;DHT22;2227;47.810;8.810;2022-11-20T08:07:55;5.80;99.90
4429;DHT22;2227;47.810;8.810;2022-11-20T08:10:22;5.90;99.90
4429;DHT22;2227;47.810;8.810;2022-11-20T08:12:51;6.00;99.90
4429;DHT22;2227;47.810;8.810;2022-11-20T08:15:38;6.10;99.90
4429;DHT22;2227;47.810;8.810;2022-11-20T08:18:10;6.30;99.90
4429;DHT22;2227;47.810;8.810;2022-11-20T08:21:01;6.20;99.90
4429;DHT22;2227;47.810;8.810;2022-11-20T08:23:28;6.10;99.90
4429;DHT22;2227;47.810;8.810;2022-11-20T08:25:55;6.00;99.90
4429;DHT22;2227;47.810;8.810;2022-11-20T08:28:21;6.00;99.90
4429;DHT22;2227;47.810;8.810;2022-11-20T08:30:49;6.10;99.90
4429;DHT22;2227;47.810;8.810;2022-11-20T08:33:16;6.00;99.90
4429;DHT22;2227;47.810;8.810;2022-11-20T08:35:44;5.90;99.90
4429;DHT22;2227;47.810;8.810;2022-11-20T08:38:10;6.00;99.90
4429;DHT22;2227;47.810;8.810;2022-11-20T08:40:37;6.00;99.90
4429;DHT22;2227;47.810;8.810;2022-11-20T08:43:04;6.10;99.90
4429;DHT22;2227;47.810;8.810;2022-11-20T08:45:31;6.20;99.90
4429;DHT22;2227;47.810;8.810;2022-11-20T08:48:01;6.20;99.90
4429;DHT22;2227;47.810;8.810;2022-11-20T08:50:28;6.40;99.90
4429;DHT22;2227;47.810;8.810;2022-11-20T08:53:04;6.40;99.90
4429;DHT22;2227;47.810;8.810;2022-11-20T08:55:31;6.50;99.90
4429;DHT22;2227;47.810;8.810;2022-11-20T08:58:02;6.60;99.90
4429;DHT22;2227;47.810;8.810;2022-11-20T09:00:29;6.60;99.90
4429;DHT22;2227;47.810;8.810;2022-11-20T09:02:56;6.50;99.90
4429;DHT22;2227;47.810;8.810;2022-11-20T09:05:24;6.60;99.90
4429;DHT22;2227;47.810;8.810;2022-11-20T09:07:51;6.70;99.90
4429;DHT22;2227;47.810;8.810;2022-11-20T09:10:18;6.70;99.90
4429;DHT22;2227;47.810;8.810;2022-11-20T09:12:50;7.30;99.90
4429;DHT22;2227;47.810;8.810;2022-11-20T09:15:19;7.50;99.90
4429;DHT22;2227;47.810;8.810;2022-11-20T09:17:56;7.50;99.90
4429;DHT22;2227;47.810;8.810;2022-11-20T09:20:24;7.60;99.90
4429;DHT22;2227;47.810;8.810;2022-11-20T09:22:51;7.60;99.90
4429;DHT22;2227;47.810;8.810;2022-11-20T09:25:18;7.70;99.90
4429;DHT22;2227;47.810;8.810;2022-11-20T09:27:45;7.80;99.90
4429;DHT22;2227;47.810;8.810;2022-11-20T09:30:14;7.80;99.90
4429;DHT22;2227;47.810;8.810;2022-11-20T09:32:42;7.80;99.90
4429;DHT22;2227;47.810;8.810;2022-11-20T09:35:09;7.60;99.90
4429;DHT22;2227;47.810;8.810;2022-11-20T09:37:36;7.70;99.90
4429;DHT22;2227;47.810;8.810;2022-11-20T09:40:03;7.60;99.90
4429;DHT22;2227;47.810;8.810;2022-11-20T09:42:37;7.60;99.90
4429;DHT22;2227;47.810;8.810;2022-11-20T09:50:52;7.70;99.90
4429;DHT22;2227;47.810;8.810;2022-11-20T09:53:39;7.70;99.90
4429;DHT22;2227;47.810;8.810;2022-11-20T09:56:11;7.60;99.90
4429;DHT22;2227;47.810;8.810;2022-11-20T09:58:59;7.50;99.90
4429;DHT22;2227;47.810;8.810;2022-11-20T10:01:34;7.50;99.90
4429;DHT22;2227;47.810;8.810;2022-11-20T10:04:16;7.50;99.90
4429;DHT22;2227;47.810;8.810;2022-11-20T10:06:53;7.30;99.90
4429;DHT22;2227;47.810;8.810;2022-11-20T10:09:50;7.40;99.90
4429;DHT22;2227;47.810;8.810;2022-11-20T10:28:55;7.50;99.90
4429;DHT22;2227;47.810;8.810;2022-11-20T10:31:41;7.60;99.90
4429;DHT22;2227;47.810;8.810;2022-11-20T10:37:09;7.50;99.90
4429;DHT22;2227;47.810;8.810;2022-11-20T10:40:01;7.50;99.90
4429;DHT22;2227;47.810;8.810;2022-11-20T10:42:45;7.50;99.90
4429;DHT22;2227;47.810;8.810;2022-11-20T10:45:28;7.70;99.90
4429;DHT22;2227;47.810;8.810;2022-11-20T10:50:36;7.60;99.90
4429;DHT22;2227;47.810;8.810;2022-11-20T10:53:18;7.50;99.90
4429;DHT22;2227;47.810;8.810;2022-11-20T10:56:09;7.50;99.90
4429;DHT22;2227;47.810;8.810;2022-11-20T10:58:52;7.50;99.90
4429;DHT22;2227;47.810;8.810;2022-11-20T11:01:21;7.60;99.90
4429;DHT22;2227;47.810;8.810;2022-11-20T11:03:55;7.60;99.90
4429;DHT22;2227;47.810;8.810;2022-11-20T11:08:58;7.50;99.90
4429;DHT22;2227;47.810;8.810;2022-11-20T11:11:31;7.50;99.90
4429;DHT22;2227;47.810;8.810;2022-11-20T11:14:06;7.50;99.90
4429;DHT22;2227;47.810;8.810;2022-11-20T11:16:34;7.50;99.90
4429;DHT22;2227;47.810;8.810;2022-11-20T11:19:12;7.50;99.90
4429;DHT22;2227;47.810;8.810;2022-11-20T11:21:46;7.50;99.90
4429;DHT22;2227;47.810;8.810;2022-11-20T11:27:13;7.50;99.90
4429;DHT22;2227;47.810;8.810;2022-11-20T11:29:44;7.70;99.90
4429;DHT22;2227;47.810;8.810;2022-11-20T11:32:20;7.80;99.90
4429;DHT22;2227;47.810;8.810;2022-11-20T11:35:05;7.80;99.90
4429;DHT22;2227;47.810;8.810;2022-11-20T11:37:34;7.90;99.90
4429;DHT22;2227;47.810;8.810;2022-11-20T11:40:04;7.90;99.90
4429;DHT22;2227;47.810;8.810;2022-11-20T11:42:55;8.00;99.90
4429;DHT22;2227;47.810;8.810;2022-11-20T11:45:23;8.00;99.90
4429;DHT22;2227;47.810;8.810;2022-11-20T11:47:51;8.00;99.90
4429;DHT22;2227;47.810;8.810;2022-11-20T11:50:21;8.00;99.90
4429;DHT22;2227;47.810;8.810;2022-11-20T11:58:48;7.90;99.90
4429;DHT22;2227;47.810;8.810;2022-11-20T12:00:58;7.90;99.90
4429;DHT22;2227;47.810;8.810;2022-11-20T12:03:35;8.00;99.90
4429;DHT22;2227;47.810;8.810;2022-11-20T12:06:21;8.10;99.90
4429;DHT22;2227;47.810;8.810;2022-11-20T12:08:59;8.00;99.90
4429;DHT22;2227;47.810;8.810;2022-11-20T12:11:59;7.90;99.90
4429;DHT22;2227;47.810;8.810;2022-11-20T12:14:38;7.80;99.90
4429;DHT22;2227;47.810;8.810;2022-11-20T12:17:10;7.80;99.90
4429;DHT22;2227;47.810;8.810;2022-11-20T12:19:38;7.90;99.90
4429;DHT22;2227;47.810;8.810;2022-11-20T12:25:35;8.10;99.90
4429;DHT22;2227;47.810;8.810;2022-11-20T12:36:34;8.80;99.90
4429;DHT22;2227;47.810;8.810;2022-11-20T12:56:34;10.90;99.90
4429;DHT22;2227;47.810;8.810;2022-11-20T13:08:04;11.30;99.90
4429;DHT22;2227;47.810;8.810;2022-11-20T13:10:39;11.30;99.90
4429;DHT22;2227;47.810;8.810;2022-11-20T13:13:15;11.20;99.90
4429;DHT22;2227;47.810;8.810;2022-11-20T13:15:48;11.60;99.90
4429;DHT22;2227;47.810;8.810;2022-11-20T13:18:17;11.40;99.90
4429;DHT22;2227;47.810;8.810;2022-11-20T13:20:45;11.40;99.90
4429;DHT22;2227;47.810;8.810;2022-11-20T13:23:26;11.60;99.90
4429;DHT22;2227;47.810;8.810;2022-11-20T13:26:26;12.00;99.90
4429;DHT22;2227;47.810;8.810;2022-11-20T13:29:09;11.80;99.90
4429;DHT22;2227;47.810;8.810;2022-11-20T13:31:41;11.70;99.90
4429;DHT22;2227;47.810;8.810;2022-11-20T13:34:12;11.30;99.90
4429;DHT22;2227;47.810;8.810;2022-11-20T13:36:52;10.90;99.90
4429;DHT22;2227;47.810;8.810;2022-11-20T13:39:26;10.80;99.90
4429;DHT22;2227;47.810;8.810;2022-11-20T13:42:01;10.20;99.90
4429;DHT22;2227;47.810;8.810;2022-11-20T13:44:38;9.90;99.90
4429;DHT22;2227;47.810;8.810;2022-11-20T13:47:23;9.70;99.90
4429;DHT22;2227;47.810;8.810;2022-11-20T13:49:52;9.70;99.90
4429;DHT22;2227;47.810;8.810;2022-11-20T13:53:01;9.80;99.90
4429;DHT22;2227;47.810;8.810;2022-11-20T13:55:37;10.10;99.90
4429;DHT22;2227;47.810;8.810;2022-11-20T14:01:05;11.30;99.90
4429;DHT22;2227;47.810;8.810;2022-11-20T14:03:34;11.30;99.90
4429;DHT22;2227;47.810;8.810;2022-11-20T14:06:31;10.90;99.90
4429;DHT22;2227;47.810;8.810;2022-11-20T14:08:59;10.60;99.90
4429;DHT22;2227;47.810;8.810;2022-11-20T14:11:30;10.20;99.90
4429;DHT22;2227;47.810;8.810;2022-11-20T14:14:17;10.10;99.90
4429;DHT22;2227;47.810;8.810;2022-11-20T14:16:44;9.80;99.90
4429;DHT22;2227;47.810;8.810;2022-11-20T14:21:48;9.60;99.90
4429;DHT22;2227;47.810;8.810;2022-11-20T14:24:19;9.40;99.90
4429;DHT22;2227;47.810;8.810;2022-11-20T14:26:48;9.30;99.90
4429;DHT22;2227;47.810;8.810;2022-11-20T14:31:45;9.20;99.90
4429;DHT22;2227;47.810;8.810;2022-11-20T14:34:22;9.20;99.90
4429;DHT22;2227;47.810;8.810;2022-11-20T14:36:57;8.90;99.90
4429;DHT22;2227;47.810;8.810;2022-11-20T14:39:49;8.90;99.90
4429;DHT22;2227;47.810;8.810;2022-11-20T14:42:18;8.90;99.90
4429;DHT22;2227;47.810;8.810;2022-11-20T14:44:48;8.80;99.90
4429;DHT22;2227;47.810;8.810;2022-11-20T14:47:19;8.80;99.90
4429;DHT22;2227;47.810;8.810;2022-11-20T14:49:47;8.70;99.90
4429;DHT22;2227;47.810;8.810;2022-11-20T14:52:18;8.70;99.90
4429;DHT22;2227;47.810;8.810;2022-11-20T14:54:50;8.60;99.90
4429;DHT22;2227;47.810;8.810;2022-11-20T14:57:34;8.60;99.90
4429;DHT22;2227;47.810;8.810;2022-11-20T15:02:42;8.70;99.90
4429;DHT22;2227;47.810;8.810;2022-11-20T15:05:09;8.70;99.90
4429;DHT22;2227;47.810;8.810;2022-11-20T15:07:39;8.70;99.90
4429;DHT22;2227;47.810;8.810;2022-11-20T15:10:12;8.70;99.90
4429;DHT22;2227;47.810;8.810;2022-11-20T15:12:53;8.60;99.90
4429;DHT22;2227;47.810;8.810;2022-11-20T15:15:30;8.50;99.90
4429;DHT22;2227;47.810;8.810;2022-11-20T15:17:59;8.50;99.90
4429;DHT22;2227;47.810;8.810;2022-11-20T15:20:28;8.30;99.90
4429;DHT22;2227;47.810;8.810;2022-11-20T15:22:56;8.10;99.90
4429;DHT22;2227;47.810;8.810;2022-11-20T15:25:23;8.00;99.90
4429;DHT22;2227;47.810;8.810;2022-11-20T15:28:00;8.00;99.90
4429;DHT22;2227;47.810;8.810;2022-11-20T15:30:26;7.80;99.90
4429;DHT22;2227;47.810;8.810;2022-11-20T15:32:53;7.80;99.90
4429;DHT22;2227;47.810;8.810;2022-11-20T15:35:20;7.80;99.90
4429;DHT22;2227;47.810;8.810;2022-11-20T15:37:47;7.80;99.90
4429;DHT22;2227;47.810;8.810;2022-11-20T15:40:14;7.90;99.90
4429;DHT22;2227;47.810;8.810;2022-11-20T15:42:40;7.90;99.90
4429;DHT22;2227;47.810;8.810;2022-11-20T15:45:28;7.70;99.90
4429;DHT22;2227;47.810;8.810;2022-11-20T15:47:57;7.70;99.90
4429;DHT22;2227;47.810;8.810;2022-11-20T15:50:36;7.60;99.90
4429;DHT22;2227;47.810;8.810;2022-11-20T15:53:03;7.20;99.90
4429;DHT22;2227;47.810;8.810;2022-11-20T15:55:31;7.00;99.90
4429;DHT22;2227;47.810;8.810;2022-11-20T15:57:58;6.90;99.90
4429;DHT22;2227;47.810;8.810;2022-11-20T16:00:24;6.80;99.90
4429;DHT22;2227;47.810;8.810;2022-11-20T16:02:51;6.80;99.90
4429;DHT22;2227;47.810;8.810;2022-11-20T16:05:18;6.90;99.90
4429;DHT22;2227;47.810;8.810;2022-11-20T16:07:45;7.00;99.90
4429;DHT22;2227;47.810;8.810;2022-11-20T16:10:12;6.90;99.90
4429;DHT22;2227;47.810;8.810;2022-11-20T16:12:38;6.90;99.90
4429;DHT22;2227;47.810;8.810;2022-11-20T16:15:51;6.70;99.90
4429;DHT22;2227;47.810;8.810;2022-11-20T16:18:20;6.70;99.90
4429;DHT22;2227;47.810;8.810;2022-11-20T16:20:52;6.60;99.90
4429;DHT22;2227;47.810;8.810;2022-11-20T16:23:20;6.60;99.90
4429;DHT22;2227;47.810;8.810;2022-11-20T16:25:47;6.60;99.90
4429;DHT22;2227;47.810;8.810;2022-11-20T16:28:14;6.60;99.90
4429;DHT22;2227;47.810;8.810;2022-11-20T16:30:45;6.60;99.90
4429;DHT22;2227;47.810;8.810;2022-11-20T16:33:14;6.60;99.90
4429;DHT22;2227;47.810;8.810;2022-11-20T16:35:41;6.60;99.90
4429;DHT22;2227;47.810;8.810;2022-11-20T16:38:08;6.60;99.90
4429;DHT22;2227;47.810;8.810;2022-11-20T16:40:35;6.50;99.90
4429;DHT22;2227;47.810;8.810;2022-11-20T16:43:09;6.60;99.90
4429;DHT22;2227;47.810;8.810;2022-11-20T16:45:43;6.50;99.90
4429;DHT22;2227;47.810;8.810;2022-11-20T16:48:15;6.50;99.90
4429;DHT22;2227;47.810;8.810;2022-11-20T16:50:50;6.50;99.90
4429;DHT22;2227;47.810;8.810;2022-11-20T16:53:18;6.50;99.90
4429;DHT22;2227;47.810;8.810;2022-11-20T16:55:45;6.50;99.90
4429;DHT22;2227;47.810;8.810;2022-11-20T16:58:12;6.50;99.90
4429;DHT22;2227;47.810;8.810;2022-11-20T17:00:40;6.60;99.90
4429;DHT22;2227;47.810;8.810;2022-11-20T17:03:13;6.60;99.90
4429;DHT22;2227;47.810;8.810;2022-11-20T17:05:43;6.40;99.90
4429;DHT22;2227;47.810;8.810;2022-11-20T17:08:09;6.20;99.90
4429;DHT22;2227;47.810;8.810;2022-11-20T17:10:36;6.20;99.90
4429;DHT22;2227;47.810;8.810;2022-11-20T17:13:03;6.30;99.90
4429;DHT22;2227;47.810;8.810;2022-11-20T17:15:30;6.30;99.90
4429;DHT22;2227;47.810;8.810;2022-11-20T17:17:57;6.40;99.90
4429;DHT22;2227;47.810;8.810;2022-11-20T17:20:23;6.50;99.90
4429;DHT22;2227;47.810;8.810;2022-11-20T17:22:50;6.50;99.90
4429;DHT22;2227;47.810;8.810;2022-11-20T17:25:17;6.50;99.90
4429;DHT22;2227;47.810;8.810;2022-11-20T17:27:44;6.50;99.90
4429;DHT22;2227;47.810;8.810;2022-11-20T17:30:10;6.50;99.90
4429;DHT22;2227;47.810;8.810;2022-11-20T17:32:37;6.60;99.90
4429;DHT22;2227;47.810;8.810;2022-11-20T17:35:05;6.60;99.90
4429;DHT22;2227;47.810;8.810;2022-11-20T17:37:32;6.40;99.90
4429;DHT22;2227;47.810;8.810;2022-11-20T17:39:58;6.40;99.90
4429;DHT22;2227;47.810;8.810;2022-11-20T17:42:25;6.40;99.90
4429;DHT22;2227;47.810;8.810;2022-11-20T17:44:52;6.40;99.90
4429;DHT22;2227;47.810;8.810;2022-11-20T17:47:18;6.40;99.90
4429;DHT22;2227;47.810;8.810;2022-11-20T17:49:45;6.40;99.90
4429;DHT22;2227;47.810;8.810;2022-11-20T17:52:12;6.30;99.90
4429;DHT22;2227;47.810;8.810;2022-11-20T17:54:38;6.30;99.90
4429;DHT22;2227;47.810;8.810;2022-11-20T17:57:05;6.30;99.90
4429;DHT22;2227;47.810;8.810;2022-11-20T17:59:51;6.20;99.90
4429;DHT22;2227;47.810;8.810;2022-11-20T18:02:18;6.20;99.90
4429;DHT22;2227;47.810;8.810;2022-11-20T18:04:44;6.20;99.90
4429;DHT22;2227;47.810;8.810;2022-11-20T18:07:11;6.10;99.90
4429;DHT22;2227;47.810;8.810;2022-11-20T18:09:38;6.20;99.90
4429;DHT22;2227;47.810;8.810;2022-11-20T18:12:05;6.10;99.90
4429;DHT22;2227;47.810;8.810;2022-11-20T18:14:32;6.10;99.90
4429;DHT22;2227;47.810;8.810;2022-11-20T18:17:06;6.10;99.90
4429;DHT22;2227;47.810;8.810;2022-11-20T18:19:34;6.30;99.90
4429;DHT22;2227;47.810;8.810;2022-11-20T18:22:08;6.30;99.90
4429;DHT22;2227;47.810;8.810;2022-11-20T18:24:35;6.30;99.90
4429;DHT22;2227;47.810;8.810;2022-11-20T18:27:04;6.40;99.90
4429;DHT22;2227;47.810;8.810;2022-11-20T18:29:31;6.50;99.90
4429;DHT22;2227;47.810;8.810;2022-11-20T18:31:59;6.60;99.90
4429;DHT22;2227;47.810;8.810;2022-11-20T18:34:26;6.70;99.90
4429;DHT22;2227;47.810;8.810;2022-11-20T18:36:53;6.70;99.90
4429;DHT22;2227;47.810;8.810;2022-11-20T18:39:19;6.80;99.90
4429;DHT22;2227;47.810;8.810;2022-11-20T18:41:47;6.80;99.90
4429;DHT22;2227;47.810;8.810;2022-11-20T18:44:39;6.90;99.90
4429;DHT22;2227;47.810;8.810;2022-11-20T18:47:19;6.90;99.90
4429;DHT22;2227;47.810;8.810;2022-11-20T18:49:51;6.80;99.90
4429;DHT22;2227;47.810;8.810;2022-11-20T18:52:20;6.90;99.90
4429;DHT22;2227;47.810;8.810;2022-11-20T18:54:48;6.90;99.90
4429;DHT22;2227;47.810;8.810;2022-11-20T18:57:23;6.90;99.90
4429;DHT22;2227;47.810;8.810;2022-11-20T18:59:51;6.90;99.90
4429;DHT22;2227;47.810;8.810;2022-11-20T19:02:19;6.90;99.90
4429;DHT22;2227;47.810;8.810;2022-11-20T19:04:47;6.90;99.90
4429;DHT22;2227;47.810;8.810;2022-11-20T19:07:15;6.90;99.90
4429;DHT22;2227;47.810;8.810;2022-11-20T19:09:43;6.90;99.90
4429;DHT22;2227;47.810;8.810;2022-11-20T19:12:11;6.80;99.90
4429;DHT22;2227;47.810;8.810;2022-11-20T19:14:38;6.90;99.90
4429;DHT22;2227;47.810;8.810;2022-11-20T19:17:06;6.80;99.90
4429;DHT22;2227;47.810;8.810;2022-11-20T19:19:34;6.70;99.90
4429;DHT22;2227;47.810;8.810;2022-11-20T19:22:00;6.60;99.90
4429;DHT22;2227;47.810;8.810;2022-11-20T19:24:27;6.50;99.90
4429;DHT22;2227;47.810;8.810;2022-11-20T19:26:54;6.50;99.90
4429;DHT22;2227;47.810;8.810;2022-11-20T19:29:22;6.40;99.90
4429;DHT22;2227;47.810;8.810;2022-11-20T19:31:49;6.30;99.90
4429;DHT22;2227;47.810;8.810;2022-11-20T19:34:16;6.40;99.90
4429;DHT22;2227;47.810;8.810;2022-11-20T19:36:43;6.40;99.90
4429;DHT22;2227;47.810;8.810;2022-11-20T19:39:11;6.30;99.90
4429;DHT22;2227;47.810;8.810;2022-11-20T19:41:38;6.20;99.90
4429;DHT22;2227;47.810;8.810;2022-11-20T19:44:11;6.10;99.90
4429;DHT22;2227;47.810;8.810;2022-11-20T19:46:40;6.10;99.90
4429;DHT22;2227;47.810;8.810;2022-11-20T19:49:09;6.00;99.90
4429;DHT22;2227;47.810;8.810;2022-11-20T19:51:37;6.00;99.90
4429;DHT22;2227;47.810;8.810;2022-11-20T19:54:05;5.90;99.90
4429;DHT22;2227;47.810;8.810;2022-11-20T19:56:32;5.90;99.90
4429;DHT22;2227;47.810;8.810;2022-11-20T19:59:00;5.90;99.90
4429;DHT22;2227;47.810;8.810;2022-11-20T20:01:29;5.80;99.90
4429;DHT22;2227;47.810;8.810;2022-11-20T20:03:58;5.70;99.90
4429;DHT22;2227;47.810;8.810;2022-11-20T20:06:32;5.70;99.90
4429;DHT22;2227;47.810;8.810;2022-11-20T20:09:08;5.60;99.90
4429;DHT22;2227;47.810;8.810;2022-11-20T20:11:35;5.50;99.90
4429;DHT22;2227;47.810;8.810;2022-11-20T20:14:05;5.50;99.90
4429;DHT22;2227;47.810;8.810;2022-11-20T20:16:31;5.50;99.90
4429;DHT22;2227;47.810;8.810;2022-11-20T20:19:01;5.60;99.90
4429;DHT22;2227;47.810;8.810;2022-11-20T20:21:29;5.60;99.90
4429;DHT22;2227;47.810;8.810;2022-11-20T20:23:56;5.50;99.90
4429;DHT22;2227;47.810;8.810;2022-11-20T20:26:25;5.40;99.90
4429;DHT22;2227;47.810;8.810;2022-11-20T20:28:53;5.30;99.90
4429;DHT22;2227;47.810;8.810;2022-11-20T20:31:22;5.20;99.90
4429;DHT22;2227;47.810;8.810;2022-11-20T20:33:49;5.20;99.90
4429;DHT22;2227;47.810;8.810;2022-11-20T20:36:18;5.20;99.90
4429;DHT22;2227;47.810;8.810;2022-11-20T20:38:45;5.10;99.90
4429;DHT22;2227;47.810;8.810;2022-11-20T20:41:13;5.00;99.90
4429;DHT22;2227;47.810;8.810;2022-11-20T20:43:39;5.00;99.90
4429;DHT22;2227;47.810;8.810;2022-11-20T20:46:25;4.90;99.90
4429;DHT22;2227;47.810;8.810;2022-11-20T20:48:52;4.90;99.90
4429;DHT22;2227;47.810;8.810;2022-11-20T20:51:21;4.90;99.90
4429;DHT22;2227;47.810;8.810;2022-11-20T20:53:48;4.90;99.90
4429;DHT22;2227;47.810;8.810;2022-11-20T20:56:16;4.90;99.90
4429;DHT22;2227;47.810;8.810;2022-11-20T20:58:43;4.90;99.90
4429;DHT22;2227;47.810;8.810;2022-11-20T21:01:12;4.90;99.90
4429;DHT22;2227;47.810;8.810;2022-11-20T21:03:39;4.80;99.90
4429;DHT22;2227;47.810;8.810;2022-11-20T21:06:07;4.80;99.90
4429;DHT22;2227;47.810;8.810;2022-11-20T21:08:36;4.80;99.90
4429;DHT22;2227;47.810;8.810;2022-11-20T21:11:11;4.90;99.90
4429;DHT22;2227;47.810;8.810;2022-11-20T21:13:39;4.90;99.90
4429;DHT22;2227;47.810;8.810;2022-11-20T21:16:07;4.80;99.90
4429;DHT22;2227;47.810;8.810;2022-11-20T21:18:34;4.80;99.90
4429;DHT22;2227;47.810;8.810;2022-11-20T21:21:07;4.80;99.90
4429;DHT22;2227;47.810;8.810;2022-11-20T21:23:53;4.80;99.90
4429;DHT22;2227;47.810;8.810;2022-11-20T21:26:20;4.80;99.90
4429;DHT22;2227;47.810;8.810;2022-11-20T21:28:47;4.80;99.90
4429;DHT22;2227;47.810;8.810;2022-11-20T21:31:17;4.80;99.90
4429;DHT22;2227;47.810;8.810;2022-11-20T21:33:46;4.80;99.90
4429;DHT22;2227;47.810;8.810;2022-11-20T21:36:19;4.70;99.90
4429;DHT22;2227;47.810;8.810;2022-11-20T21:38:47;4.60;99.90
4429;DHT22;2227;47.810;8.810;2022-11-20T21:41:14;4.70;99.90
4429;DHT22;2227;47.810;8.810;2022-11-20T21:43:41;4.70;99.90
4429;DHT22;2227;47.810;8.810;2022-11-20T21:46:12;4.70;99.90
4429;DHT22;2227;47.810;8.810;2022-11-20T21:48:40;4.70;99.90
4429;DHT22;2227;47.810;8.810;2022-11-20T21:51:18;4.70;99.90
4429;DHT22;2227;47.810;8.810;2022-11-20T21:53:46;4.70;99.90
4429;DHT22;2227;47.810;8.810;2022-11-20T21:56:14;4.70;99.90
4429;DHT22;2227;47.810;8.810;2022-11-20T21:58:46;4.70;99.90
4429;DHT22;2227;47.810;8.810;2022-11-20T22:01:28;4.70;99.90
4429;DHT22;2227;47.810;8.810;2022-11-20T22:04:00;4.70;99.90
4429;DHT22;2227;47.810;8.810;2022-11-20T22:06:31;4.80;99.90
4429;DHT22;2227;47.810;8.810;2022-11-20T22:09:02;4.80;99.90
4429;DHT22;2227;47.810;8.810;2022-11-20T22:11:29;4.80;99.90
4429;DHT22;2227;47.810;8.810;2022-11-20T22:13:56;4.80;99.90
4429;DHT22;2227;47.810;8.810;2022-11-20T22:16:41;4.80;99.90
4429;DHT22;2227;47.810;8.810;2022-11-20T22:19:08;4.80;99.90
4429;DHT22;2227;47.810;8.810;2022-11-20T22:21:38;4.80;99.90
4429;DHT22;2227;47.810;8.810;2022-11-20T22:24:05;4.90;99.90
4429;DHT22;2227;47.810;8.810;2022-11-20T22:26:34;4.90;99.90
4429;DHT22;2227;47.810;8.810;2022-11-20T22:29:06;4.90;99.90
4429;DHT22;2227;47.810;8.810;2022-11-20T22:31:33;4.90;99.90
4429;DHT22;2227;47.810;8.810;2022-11-20T22:34:01;4.90;99.90
4429;DHT22;2227;47.810;8.810;2022-11-20T22:36:29;5.00;99.90
4429;DHT22;2227;47.810;8.810;2022-11-20T22:38:57;5.00;99.90
4429;DHT22;2227;47.810;8.810;2022-11-20T22:41:25;5.00;99.90
4429;DHT22;2227;47.810;8.810;2022-11-20T22:43:54;5.10;99.90
4429;DHT22;2227;47.810;8.810;2022-11-20T22:46:25;5.10;99.90
4429;DHT22;2227;47.810;8.810;2022-11-20T22:51:21;5.20;99.90
4429;DHT22;2227;47.810;8.810;2022-11-20T22:53:48;5.20;99.90
4429;DHT22;2227;47.810;8.810;2022-11-20T22:56:16;5.20;99.90
4429;DHT22;2227;47.810;8.810;2022-11-20T22:58:46;5.20;99.90
4429;DHT22;2227;47.810;8.810;2022-11-20T23:01:21;5.20;99.90
4429;DHT22;2227;47.810;8.810;2022-11-20T23:03:50;5.20;99.90
4429;DHT22;2227;47.810;8.810;2022-11-20T23:06:19;5.30;99.90
4429;DHT22;2227;47.810;8.810;2022-11-20T23:08:46;5.30;99.90
4429;DHT22;2227;47.810;8.810;2022-11-20T23:11:16;5.20;99.90